Time;durP1;ratioP1;P1;durP2;ratioP2;P2;SDS_P1;SDS_P2;PMS_P1;PMS_P2;Temp;Humidity;BMP_temperature;BMP_pressure;BME280_temperature;BME280_humidity;BME280_pressure;Samples;Min_cycle;Max_cycle;Signal;HPM_P1;HPM_P2
2022/12/25 00:02:09;;;;;;;24.80;7.85;;;;;;;-148.88;100.00;76715.75;5060887;28;20436;-83
2022/12/25 00:04:35;;;;;;;33.13;8.10;;;;;;;-148.88;100.00;76727.94;5060644;28;20484;-85
2022/12/25 00:07:00;;;;;;;23.48;7.43;;;;;;;-148.88;100.00;76729.97;5061754;28;20032;-84
2022/12/25 00:09:25;;;;;;;26.90;7.80;;;;;;;-148.88;100.00;76744.19;5078822;28;20373;-84
2022/12/25 00:11:51;;;;;;;27.42;8.07;;;;;;;-148.88;100.00;76760.44;5060104;28;20024;-84
2022/12/25 00:14:16;;;;;;;26.80;7.32;;;;;;;-148.88;100.00;76770.63;5060608;28;20131;-85
2022/12/25 00:16:42;;;;;;;23.67;7.82;;;;;;;-148.88;100.00;76788.91;5064720;28;20107;-83
2022/12/25 00:19:07;;;;;;;34.30;9.57;;;;;;;-148.88;100.00;76801.09;5062861;28;20021;-84
2022/12/25 00:21:32;;;;;;;26.45;8.35;;;;;;;-148.88;100.00;76797.03;5060458;28;20035;-82
2022/12/25 00:23:58;;;;;;;24.45;7.63;;;;;;;-148.88;100.00;76780.78;5077192;28;20024;-83
2022/12/25 00:26:27;;;;;;;16.92;7.40;;;;;;;-148.88;100.00;76782.81;5060368;28;20116;-83
2022/12/25 00:29:12;;;;;;;18.02;6.97;;;;;;;-148.88;100.00;76780.78;5064629;28;20452;-85
2022/12/25 00:31:38;;;;;;;19.63;7.30;;;;;;;-148.88;100.00;76772.66;5059905;28;20085;-82
2022/12/25 00:34:03;;;;;;;23.83;8.07;;;;;;;-148.88;100.00;76764.53;5058980;28;20447;-83
2022/12/25 00:36:28;;;;;;;22.55;6.90;;;;;;;-148.88;100.00;76758.41;5076903;28;20036;-83
2022/12/25 00:38:54;;;;;;;24.77;8.43;;;;;;;-148.88;100.00;76752.31;5077150;28;20111;-84
2022/12/25 00:42:17;;;;;;;25.15;8.35;;;;;;;-148.88;100.00;76740.13;5059268;28;20117;-84
2022/12/25 00:44:09;;;;;;;26.92;8.73;;;;;;;-148.88;100.00;76744.19;5076462;28;20035;-83
2022/12/25 00:46:35;;;;;;;27.67;7.25;;;;;;;-148.88;100.00;76744.19;5058783;28;20032;-83
2022/12/25 00:49:01;;;;;;;23.23;8.10;;;;;;;-148.88;100.00;76750.28;5058841;28;20494;-84
2022/12/25 00:51:26;;;;;;;24.40;7.85;;;;;;;-148.88;100.00;76752.31;5076558;28;20561;-84
2022/12/25 00:53:52;;;;;;;26.38;7.22;;;;;;;-148.88;100.00;76768.59;5059047;28;20020;-84
2022/12/25 00:56:17;;;;;;;17.15;6.55;;;;;;;-148.88;100.00;76768.59;5077285;28;20105;-84
2022/12/25 00:58:42;;;;;;;21.13;7.00;;;;;;;-148.88;100.00;76776.72;5076413;28;20024;-84
2022/12/25 01:01:10;;;;;;;19.65;7.68;;;;;;;-148.88;100.00;76770.63;5058237;28;20484;-83
2022/12/25 01:03:35;;;;;;;16.70;6.32;;;;;;;-148.88;100.00;76772.66;5075369;28;20020;-82
2022/12/25 01:06:03;;;;;;;26.50;6.70;;;;;;;-148.88;100.00;76772.66;5076242;28;20031;-83
2022/12/25 01:08:31;;;;;;;22.90;6.70;;;;;;;-148.88;100.00;76764.53;5075803;28;20029;-84
2022/12/25 01:11:00;;;;;;;17.25;6.53;;;;;;;-148.88;100.00;76762.50;5075214;28;20123;-83
2022/12/25 01:13:27;;;;;;;21.90;7.47;;;;;;;-148.88;100.00;76772.66;5057885;28;20495;-84
2022/12/25 01:15:53;;;;;;;26.60;8.02;;;;;;;-148.88;100.00;76764.53;5076335;28;20028;-84
2022/12/25 01:18:19;;;;;;;22.90;9.50;;;;;;;-148.88;100.00;76778.75;5075775;28;20021;-84
2022/12/25 01:20:47;;;;;;;22.08;8.20;;;;;;;-148.88;100.00;76780.78;5058069;28;20039;-84
2022/12/25 01:23:12;;;;;;;24.48;8.02;;;;;;;-148.88;100.00;76772.66;5087960;28;20028;-86
2022/12/25 01:25:38;;;;;;;21.23;8.10;;;;;;;-148.88;100.00;76768.59;5088227;28;20078;-86
2022/12/25 01:28:03;;;;;;;23.52;8.50;;;;;;;-148.88;100.00;76764.53;5068425;28;20028;-86
2022/12/25 01:30:28;;;;;;;25.80;8.05;;;;;;;-148.88;100.00;76762.50;5066913;28;20047;-85
2022/12/25 01:32:54;;;;;;;29.80;9.65;;;;;;;-148.88;100.00;76760.44;5066985;28;20384;-86
2022/12/25 01:35:19;;;;;;;25.63;8.57;;;;;;;-148.88;100.00;76762.50;5084157;28;20056;-84
2022/12/25 01:37:44;;;;;;;24.17;8.65;;;;;;;-148.88;100.00;76766.56;5056988;28;20028;-83
2022/12/25 01:40:10;;;;;;;16.85;7.32;;;;;;;-148.88;100.00;76764.53;5074678;28;20025;-84
2022/12/25 01:42:41;;;;;;;19.98;7.15;;;;;;;-148.88;100.00;76762.50;5057574;28;20111;-84
2022/12/25 01:45:21;;;;;;;21.90;8.23;;;;;;;-148.88;100.00;76756.41;5075354;28;20089;-84
2022/12/25 01:47:47;;;;;;;30.08;8.60;;;;;;;-148.88;100.00;76736.06;5075242;28;20031;-83
2022/12/25 01:50:12;;;;;;;20.58;7.38;;;;;;;-148.88;100.00;76729.97;5057464;28;20020;-83
2022/12/25 01:52:41;;;;;;;20.77;7.18;;;;;;;-148.88;100.00;76727.94;5076011;28;20455;-84
2022/12/25 01:55:08;;;;;;;19.88;7.03;;;;;;;-148.88;100.00;76719.81;5062388;28;20020;-85
2022/12/25 01:57:36;;;;;;;22.17;6.55;;;;;;;-148.88;100.00;76705.59;5061798;28;20112;-84
2022/12/25 02:00:05;;;;;;;19.92;7.50;;;;;;;-148.88;100.00;76697.47;5062193;28;20567;-84
2022/12/25 02:02:30;;;;;;;22.65;7.57;;;;;;;-148.88;100.00;76671.06;5077768;28;20032;-84
2022/12/25 02:05:18;;;;;;;27.17;8.07;;;;;;;-148.88;100.00;76662.94;5057421;28;20016;-84
2022/12/25 02:07:45;;;;;;;22.40;7.47;;;;;;;-148.88;100.00;76644.66;5074120;28;20396;-84
2022/12/25 02:10:11;;;;;;;23.17;7.78;;;;;;;-148.88;100.00;76626.38;5057822;28;20096;-83
2022/12/25 02:12:38;;;;;;;23.52;6.57;;;;;;;-148.88;100.00;76624.34;5055701;28;20442;-84
2022/12/25 02:15:08;;;;;;;22.63;6.63;;;;;;;-148.88;100.00;76622.31;5074356;28;20035;-83
2022/12/25 02:17:52;;;;;;;19.00;6.28;;;;;;;-148.88;100.00;76626.38;5057641;28;20032;-83
2022/12/25 02:20:37;;;;;;;23.42;6.13;;;;;;;-148.88;100.00;76614.19;5057679;28;20165;-84
2022/12/25 02:23:27;;;;;;;24.98;6.05;;;;;;;-148.88;100.00;76601.97;5057499;28;20058;-83
2022/12/25 02:26:15;;;;;;;19.48;6.60;;;;;;;-148.88;100.00;76585.72;5057722;28;20434;-84
2022/12/25 02:29:03;;;;;;;24.02;7.03;;;;;;;-148.88;100.00;76575.56;5075659;28;20024;-84
2022/12/25 02:31:48;;;;;;;32.13;7.20;;;;;;;-148.88;100.00;76557.28;5057934;28;20039;-83
2022/12/25 02:34:19;;;;;;;27.92;7.75;;;;;;;-148.88;100.00;76553.22;5075264;28;20036;-84
2022/12/25 02:37:01;;;;;;;29.13;6.93;;;;;;;-148.88;100.00;76565.41;5056934;28;20025;-84
2022/12/25 02:39:56;;;;;;;24.58;6.65;;;;;;;-148.88;100.00;76559.31;5057999;28;20029;-84
2022/12/25 03:08:24;;;;;;;23.08;6.10;;;;;;;-148.88;100.00;76506.50;5075027;28;20094;-84
2022/12/25 03:13:48;;;;;;;17.17;5.47;;;;;;;-148.88;100.00;76500.41;5075136;28;20098;-84
2022/12/25 03:26:53;;;;;;;;;;;;;;;-148.88;100.00;76510.56;5086628;28;20082;-85
2022/12/25 03:27:14;;;;;;;18.13;4.87;;;;;;;-148.88;100.00;76492.28;5073269;28;19993;-84
2022/12/25 03:32:29;;;;;;;11.90;4.10;;;;;;;-148.88;100.00;76496.34;5084622;28;20078;-85
2022/12/25 03:35:24;;;;;;;20.73;4.95;;;;;;;-148.88;100.00;76504.47;5094821;23;20101;-82
2022/12/25 03:42:30;;;;;;;22.92;5.50;;;;;;;-148.88;100.00;76496.34;5098069;28;20062;-82
2022/12/25 03:44:54;;;;;;;18.08;4.95;;;;;;;-148.88;100.00;76492.28;5095039;28;20039;-83
2022/12/25 04:37:34;;;;;;;15.85;4.43;;;;;;;-148.88;100.00;76435.41;5075663;28;20047;-84
2022/12/25 04:40:11;;;;;;;20.75;4.97;;;;;;;-148.88;100.00;76435.41;5077521;28;20566;-83
2022/12/25 04:42:37;;;;;;;16.35;5.40;;;;;;;-148.88;100.00;76431.34;5060086;28;20024;-85
2022/12/25 04:45:05;;;;;;;14.27;5.50;;;;;;;-148.88;100.00;76441.50;5078271;28;20380;-84
2022/12/25 04:47:38;;;;;;;25.48;6.18;;;;;;;-148.88;100.00;76453.69;5079850;28;20028;-83
2022/12/25 04:50:12;;;;;;;19.77;5.85;;;;;;;-148.88;100.00;76451.66;5061780;28;20486;-84
2022/12/25 04:52:38;;;;;;;;;;;;;;;-148.88;100.00;76455.72;5079980;28;20032;-83
2022/12/25 04:55:08;;;;;;;14.82;4.93;;;;;;;-148.88;100.00;76463.84;5079193;28;19999;-84
2022/12/25 04:57:39;;;;;;;16.45;5.05;;;;;;;-148.88;100.00;76471.97;5061512;28;20484;-83
2022/12/25 05:00:10;;;;;;;22.90;5.45;;;;;;;-148.88;100.00;76476.03;5079314;28;20556;-83
2022/12/25 05:02:36;;;;;;;21.33;5.63;;;;;;;-148.88;100.00;76480.09;5061249;28;20038;-83
2022/12/25 05:05:04;;;;;;;16.85;5.60;;;;;;;-148.88;100.00;76484.16;5080144;28;20114;-84
2022/12/25 05:07:29;;;;;;;20.23;5.78;;;;;;;-148.88;100.00;76488.22;5079009;28;20107;-83
2022/12/25 05:09:58;;;;;;;25.88;5.72;;;;;;;-148.88;100.00;76492.28;5059169;28;20059;-83
2022/12/25 05:12:26;;;;;;;22.15;6.40;;;;;;;-148.88;100.00;76488.22;5057474;28;20017;-82
2022/12/25 05:14:52;;;;;;;21.33;6.65;;;;;;;-148.88;100.00;76492.28;5058829;28;20023;-83
2022/12/25 05:17:17;;;;;;;16.08;5.72;;;;;;;-148.88;100.00;76498.38;5059874;28;20016;-82
2022/12/25 05:19:43;;;;;;;21.75;6.65;;;;;;;-148.88;100.00;76496.34;5077599;28;20100;-82
2022/12/25 05:22:08;;;;;;;13.70;6.05;;;;;;;-148.88;100.00;76500.41;5060407;28;20112;-83
2022/12/25 05:24:33;;;;;;;18.00;6.35;;;;;;;-148.88;100.00;76494.31;5078540;28;20372;-82
2022/12/25 05:26:59;;;;;;;19.27;5.85;;;;;;;-148.88;100.00;76496.34;5060552;28;20020;-83
2022/12/25 05:29:27;;;;;;;22.15;6.72;;;;;;;-148.88;100.00;76496.34;5061115;28;20464;-83
2022/12/25 05:31:55;;;;;;;18.80;6.25;;;;;;;-148.88;100.00;76492.28;5059029;28;20032;-83
2022/12/25 05:34:20;;;;;;;23.10;6.50;;;;;;;-148.88;100.00;76490.25;5059092;28;20094;-84
2022/12/25 05:36:46;;;;;;;23.85;7.40;;;;;;;-148.88;100.00;76492.28;5076966;28;20029;-82
2022/12/25 05:39:11;;;;;;;22.10;7.32;;;;;;;-148.88;100.00;76488.22;5058752;28;20058;-83
2022/12/25 05:41:39;;;;;;;22.70;6.65;;;;;;;-148.88;100.00;76494.31;5059476;28;20016;-83
2022/12/25 05:44:08;;;;;;;21.48;7.22;;;;;;;-148.88;100.00;76496.34;5059379;28;20135;-83
2022/12/25 05:46:33;;;;;;;22.15;6.45;;;;;;;-148.88;100.00;76490.25;5057593;28;20165;-83
2022/12/25 05:48:58;;;;;;;24.30;8.10;;;;;;;-148.88;100.00;76488.22;5075746;28;20060;-82
2022/12/25 05:51:24;;;;;;;19.67;7.07;;;;;;;-148.88;100.00;76484.16;5075538;28;20055;-82
2022/12/25 05:53:50;;;;;;;22.65;7.20;;;;;;;-148.88;100.00;76484.16;5057693;28;20103;-82
2022/12/25 05:56:16;;;;;;;17.67;6.18;;;;;;;-148.88;100.00;76480.09;5057875;28;20052;-83
2022/12/25 05:58:41;;;;;;;21.67;6.35;;;;;;;-148.88;100.00;76478.06;5058362;28;20054;-84
2022/12/25 06:01:20;;;;;;;11.55;5.75;;;;;;;-148.88;100.00;76471.97;5076364;28;20078;-83
2022/12/25 06:03:45;;;;;;;19.88;6.47;;;;;;;-148.88;100.00;76467.91;5042355;28;20032;-83
2022/12/25 06:06:12;;;;;;;19.80;6.25;;;;;;;-148.88;100.00;76467.91;5057326;28;20131;-83
2022/12/25 06:08:37;;;;;;;26.85;7.25;;;;;;;-148.88;100.00;76459.78;5076279;28;20025;-83
2022/12/25 06:11:06;;;;;;;17.85;6.65;;;;;;;-148.88;100.00;76455.72;5059119;28;20048;-84
2022/12/25 06:13:33;;;;;;;17.70;7.75;;;;;;;-148.88;100.00;76443.53;5058502;28;20047;-84
2022/12/25 06:16:01;;;;;;;23.08;7.95;;;;;;;-148.88;100.00;76451.66;5075921;28;20025;-84
2022/12/25 06:18:26;;;;;;;18.10;7.65;;;;;;;-148.88;100.00;76447.59;5076087;28;20020;-83
2022/12/25 06:20:55;;;;;;;21.08;7.63;;;;;;;-148.88;100.00;76447.59;5057033;28;20028;-84
2022/12/25 06:23:20;;;;;;;22.02;7.05;;;;;;;-148.88;100.00;76453.69;5056711;28;20487;-83
2022/12/25 06:25:46;;;;;;;17.70;5.70;;;;;;;-148.88;100.00;76451.66;5074607;28;20028;-83
2022/12/25 06:28:22;;;;;;;19.50;6.00;;;;;;;-148.88;100.00;76445.56;5057466;28;20064;-84
2022/12/25 06:30:48;;;;;;;24.63;7.10;;;;;;;-148.88;100.00;76445.56;5075658;28;20024;-83
2022/12/25 06:33:13;;;;;;;20.15;6.75;;;;;;;-148.88;100.00;76443.53;5058315;28;20094;-82
2022/12/25 06:35:39;;;;;;;24.05;8.70;;;;;;;-148.88;100.00;76449.63;5076255;28;20085;-83
2022/12/25 06:38:04;;;;;;;14.45;5.60;;;;;;;-148.88;100.00;76447.59;5076718;28;20506;-83
2022/12/25 06:40:29;;;;;;;17.30;6.00;;;;;;;-148.88;100.00;76443.53;5058584;28;20253;-84
2022/12/25 06:42:54;;;;;;;11.82;5.05;;;;;;;-148.88;100.00;76443.53;5057402;28;20476;-83
2022/12/25 06:45:20;;;;;;;19.13;5.57;;;;;;;-148.88;100.00;76439.47;5076211;28;20021;-83
2022/12/25 06:47:47;;;;;;;20.00;6.30;;;;;;;-148.88;100.00;76429.31;5075972;28;20575;-82
2022/12/25 06:50:13;;;;;;;20.88;6.45;;;;;;;-148.88;100.00;76419.16;5058780;28;20078;-84
2022/12/25 06:52:39;;;;;;;22.00;6.35;;;;;;;-148.88;100.00;76408.97;5078600;28;20485;-83
2022/12/25 06:55:05;;;;;;;23.50;6.25;;;;;;;-148.88;100.00;76411.00;5078550;28;20039;-84
2022/12/25 06:57:31;;;;;;;18.13;6.50;;;;;;;-148.88;100.00;76398.81;5075278;28;20028;-83
2022/12/25 07:00:07;;;;;;;13.18;5.25;;;;;;;-148.88;100.00;76386.63;5056384;28;20506;-83
2022/12/25 07:02:37;;;;;;;24.73;6.18;;;;;;;-148.88;100.00;76388.66;5075415;28;20032;-84
2022/12/25 07:05:29;;;;;;;22.73;6.47;;;;;;;-148.88;100.00;76386.63;5057262;28;20051;-84
2022/12/25 07:07:54;;;;;;;14.98;5.70;;;;;;;-148.88;100.00;76376.47;5075467;28;20103;-84
2022/12/25 07:10:19;;;;;;;14.80;5.93;;;;;;;-148.88;100.00;76374.44;5059609;28;20052;-84
2022/12/25 07:12:45;;;;;;;14.10;4.63;;;;;;;-148.88;100.00;76366.31;5077096;28;20035;-82
2022/12/25 07:15:10;;;;;;;11.10;4.72;;;;;;;-148.88;100.00;76362.25;5060323;28;20031;-84
2022/12/25 07:17:39;;;;;;;17.33;4.75;;;;;;;-148.88;100.00;76360.22;5060002;28;20031;-83
2022/12/25 07:20:05;;;;;;;12.45;4.68;;;;;;;-148.88;100.00;76354.13;5061200;28;20031;-83
2022/12/25 07:22:34;;;;;;;11.38;4.75;;;;;;;-148.88;100.00;76354.13;5078762;28;20028;-84
2022/12/25 07:25:13;;;;;;;15.73;4.18;;;;;;;-148.88;100.00;76350.06;5075947;28;20070;-85
2022/12/25 07:27:41;;;;;;;9.10;4.75;;;;;;;-148.88;100.00;76350.06;5059678;28;20545;-84
2022/12/25 07:30:10;;;;;;;15.05;4.53;;;;;;;-148.88;100.00;76341.94;5058739;28;20035;-84
2022/12/25 07:32:39;;;;;;;12.77;3.97;;;;;;;-148.88;100.00;76335.84;5056817;28;20028;-84
2022/12/25 07:35:04;;;;;;;13.80;4.05;;;;;;;-148.88;100.00;76323.66;5054678;28;20052;-82
2022/12/25 07:37:29;;;;;;;14.48;3.83;;;;;;;-148.88;100.00;76331.78;5073063;28;20059;-82
2022/12/25 07:39:57;;;;;;;13.93;4.78;;;;;;;-148.88;100.00;76333.81;5074450;28;20456;-82
2022/12/25 07:42:23;;;;;;;13.23;6.43;;;;;;;-148.88;100.00;76354.13;5055692;28;20540;-82
2022/12/25 07:44:48;;;;;;;13.73;5.50;;;;;;;-148.88;100.00;76374.44;5055614;28;20112;-83
2022/12/25 07:47:34;;;;;;;17.45;5.72;;;;;;;-148.88;100.00;76390.69;5074083;28;20028;-85
2022/12/25 07:49:59;;;;;;;13.45;5.82;;;;;;;-148.88;100.00;76390.69;5056833;28;20016;-84
2022/12/25 07:52:28;;;;;;;13.93;5.35;;;;;;;-148.88;100.00;76396.78;5056586;28;20067;-84
2022/12/25 07:54:53;;;;;;;18.20;5.78;;;;;;;-148.88;100.00;76386.63;5057103;28;20016;-83
2022/12/25 07:57:24;;;;;;;14.90;5.40;;;;;;;-148.88;100.00;76378.50;5075290;28;20070;-84
2022/12/25 07:59:55;;;;;;;12.00;5.32;;;;;;;-148.88;100.00;76374.44;5074931;28;20060;-83
2022/12/25 08:02:35;;;;;;;11.90;5.53;;;;;;;-148.88;100.00;76372.41;5058260;28;20012;-85
2022/12/25 08:05:02;;;;;;;15.90;6.32;;;;;;;-148.88;100.00;76370.38;5054090;28;20404;-87
2022/12/25 08:07:32;;;;;;;11.23;5.13;;;;;;;-148.88;100.00;76362.25;5055046;28;20035;-87
2022/12/25 08:10:07;;;;;;;19.83;6.30;;;;;;;-148.88;100.00;76360.22;5054288;28;20051;-86
2022/12/25 08:12:32;;;;;;;17.05;6.72;;;;;;;-148.88;100.00;76358.19;5058831;28;20025;-87
2022/12/25 08:15:19;;;;;;;14.77;5.88;;;;;;;-148.88;100.00;76364.28;5058456;28;20028;-86
2022/12/25 08:17:52;;;;;;;14.32;5.88;;;;;;;-148.88;100.00;76362.25;5075293;28;20036;-86
2022/12/25 08:20:26;;;;;;;14.15;6.25;;;;;;;-148.88;100.00;76362.25;5057222;28;20033;-86
2022/12/25 08:25:44;;;;;;;15.32;7.07;;;;;;;-148.88;100.00;76394.75;5076158;28;20044;-87
2022/12/25 08:28:30;;;;;;;18.10;7.78;;;;;;;-148.88;100.00;76402.88;5058290;28;20024;-85
2022/12/25 08:30:58;;;;;;;12.60;6.43;;;;;;;-148.88;100.00;76406.94;5058886;28;20403;-85
2022/12/25 08:33:26;;;;;;;17.70;7.25;;;;;;;-148.88;100.00;76406.94;5058700;28;20510;-84
2022/12/25 08:35:55;;;;;;;14.35;6.82;;;;;;;-148.88;100.00;76406.94;5077013;28;20028;-84
2022/12/25 08:38:20;;;;;;;13.27;6.93;;;;;;;-148.88;100.00;76400.84;5076174;28;20052;-85
2022/12/25 08:40:48;;;;;;;16.27;6.28;;;;;;;-148.88;100.00;76390.69;5058379;28;20420;-84
2022/12/25 08:43:30;;;;;;;14.65;6.80;;;;;;;-148.88;100.00;76378.50;5058016;28;20031;-84
2022/12/25 08:45:59;;;;;;;17.05;7.65;;;;;;;-148.88;100.00;76380.53;5057412;28;20067;-85
2022/12/25 08:48:25;;;;;;;16.25;7.43;;;;;;;-148.88;100.00;76374.44;5057644;28;20024;-84
2022/12/25 08:50:52;;;;;;;18.52;8.63;;;;;;;-148.88;100.00;76374.44;5058110;28;20032;-83
2022/12/25 08:53:18;;;;;;;18.77;8.15;;;;;;;-148.88;100.00;76376.47;5058422;28;20021;-84
2022/12/25 08:56:07;;;;;;;21.00;8.90;;;;;;;-148.88;100.00;76384.59;5076067;28;20029;-85
2022/12/25 08:58:36;;;;;;;20.35;8.90;;;;;;;-148.88;100.00;76386.63;5057854;28;20491;-85
2022/12/25 09:01:02;;;;;;;18.00;9.48;;;;;;;-148.88;100.00;76390.69;5075612;28;20354;-84
2022/12/25 09:03:30;;;;;;;17.35;8.23;;;;;;;-148.88;100.00;76398.81;5075896;28;20032;-84
2022/12/25 09:06:09;;;;;;;17.58;9.00;;;;;;;-148.88;100.00;76404.91;5077194;28;20020;-85
2022/12/25 09:08:35;;;;;;;20.08;8.43;;;;;;;-148.88;100.00;76404.91;5075501;28;20055;-84
2022/12/25 09:11:14;;;;;;;18.02;8.05;;;;;;;-148.88;100.00;76398.81;5075575;28;20056;-84
2022/12/25 09:13:40;;;;;;;17.88;8.77;;;;;;;-148.88;100.00;76394.75;5075325;28;20020;-84
2022/12/25 09:16:13;;;;;;;19.50;8.20;;;;;;;-148.88;100.00;76390.69;5074913;28;20081;-84
2022/12/25 09:18:38;;;;;;;18.20;7.97;;;;;;;-148.88;100.00;76388.66;5057772;28;20028;-86
2022/12/25 09:21:06;;;;;;;22.17;8.60;;;;;;;-148.88;100.00;76394.75;5075243;28;20119;-85
2022/12/25 09:23:33;;;;;;;19.98;8.10;;;;;;;-148.88;100.00;76386.63;5056190;28;20029;-85
2022/12/25 09:26:09;;;;;;;14.65;7.50;;;;;;;-148.88;100.00;76396.78;5057278;28;20036;-85
2022/12/25 09:28:38;;;;;;;16.38;7.72;;;;;;;-148.88;100.00;76402.88;5057125;28;20024;-85
2022/12/25 09:31:07;;;;;;;17.02;7.85;;;;;;;-148.88;100.00;76392.72;5056871;28;20134;-84
2022/12/25 09:33:37;;;;;;;18.80;8.70;;;;;;;-148.88;100.00;76382.56;5056685;28;20017;-85
2022/12/25 09:36:12;;;;;;;13.32;8.15;;;;;;;-148.88;100.00;76376.47;5076145;22;20061;-85
2022/12/25 09:38:37;;;;;;;18.45;9.27;;;;;;;-148.88;100.00;76358.19;5037635;28;20108;-84
2022/12/25 09:41:37;;;;;;;17.73;9.65;;;;;;;-148.88;100.00;76354.13;5036637;28;20516;-83
2022/12/25 09:44:28;;;;;;;15.02;7.82;;;;;;;-148.88;100.00;76341.94;5036071;28;20113;-86
2022/12/25 09:47:15;;;;;;;18.60;7.75;;;;;;;-148.88;100.00;76341.94;5015705;28;20030;-86
2022/12/25 09:49:49;;;;;;;16.75;7.68;;;;;;;-148.88;100.00;76343.97;5032663;28;20034;-84
2022/12/25 09:52:18;;;;;;;17.80;7.82;;;;;;;-148.88;100.00;76333.81;5015979;28;20075;-85
2022/12/25 09:54:47;;;;;;;17.42;8.40;;;;;;;-148.88;100.00;76337.88;5015441;28;20068;-86
2022/12/25 09:57:16;;;;;;;16.02;6.93;;;;;;;-148.88;100.00;76329.75;5015015;28;20034;-86
2022/12/25 09:59:43;;;;;;;18.63;7.43;;;;;;;-148.88;100.00;76319.59;5015032;28;20029;-85
2022/12/25 10:02:56;;;;;;;;;;;;;;;;;;;;;
2022/12/25 10:06:07;;;;;;;15.90;6.88;;;;;;;-148.88;100.00;76313.50;5016593;28;20101;-84
2022/12/25 10:08:42;;;;;;;17.23;7.93;;;;;;;-148.88;100.00;76325.69;5007131;28;20128;-82
2022/12/25 10:11:22;;;;;;;18.40;7.72;;;;;;;-148.88;100.00;76331.78;5015546;28;20057;-86
2022/12/25 10:14:10;;;;;;;20.30;8.25;;;;;;;-148.88;100.00;76333.81;5015420;28;20022;-85
2022/12/25 10:17:20;;;;;;;15.88;7.68;;;;;;;-148.88;100.00;76331.78;5014290;28;20483;-87
2022/12/25 10:20:11;;;;;;;17.40;7.90;;;;;;;-148.88;100.00;76323.66;5015535;28;20079;-85
2022/12/25 10:22:41;;;;;;;16.63;7.30;;;;;;;-148.88;100.00;76317.56;5015366;28;20026;-85
2022/12/25 10:25:23;;;;;;;15.88;8.02;;;;;;;-148.88;100.00;76315.53;5031572;28;20532;-83
2022/12/25 10:27:57;;;;;;;20.27;8.90;;;;;;;-148.88;100.00;76313.50;5031573;28;20037;-83
2022/12/25 10:30:26;;;;;;;16.15;7.82;;;;;;;-148.88;100.00;76313.50;5015051;28;20076;-87
2022/12/25 10:33:28;;;;;;;15.02;7.90;;;;;;;-148.88;100.00;76307.41;5014155;28;20137;-85
2022/12/25 10:35:53;;;;;;;16.27;8.18;;;;;;;-148.88;100.00;76309.44;4943946;29;20067;-87
2022/12/25 10:38:19;;;;;;;13.45;7.60;;;;;;;-148.88;100.00;76319.59;4998317;28;20057;-86
2022/12/25 10:41:19;;;;;;;14.35;7.85;;;;;;;-148.88;100.00;76313.50;5016011;28;20026;-87
2022/12/25 10:44:24;;;;;;;18.02;8.15;;;;;;;-148.88;100.00;76297.25;5015771;28;20034;-85
2022/12/25 10:47:22;;;;;;;20.02;9.13;;;;;;;-148.88;100.00;76299.28;4986789;28;20042;-85
2022/12/25 10:49:47;;;;;;;18.60;7.93;;;;;;;-148.88;100.00;76303.34;5012729;28;20536;-85
2022/12/25 10:52:25;;;;;;;19.25;7.85;;;;;;;-148.88;100.00;76303.34;5032012;28;20124;-83
2022/12/25 10:55:21;;;;;;;17.52;7.75;;;;;;;-148.88;100.00;76299.28;5032220;28;20022;-85
2022/12/25 10:57:47;;;;;;;19.73;7.80;;;;;;;-148.88;100.00;76285.06;5004484;28;20053;-85
2022/12/25 11:00:24;;;;;;;12.00;6.78;;;;;;;-148.88;100.00;76274.91;5015603;28;20033;-85
2022/12/25 11:03:20;;;;;;;14.82;7.55;;;;;;;-148.88;100.00;76264.75;5032734;28;20057;-86
2022/12/25 11:05:50;;;;;;;15.27;7.68;;;;;;;-148.88;100.00;76256.63;5014891;28;20093;-85
2022/12/25 11:08:22;;;;;;;16.35;8.35;;;;;;;-148.88;100.00;76248.50;5015197;28;20089;-84
2022/12/25 11:11:06;;;;;;;20.60;8.35;;;;;;;-148.88;100.00;76256.63;5031290;28;20018;-89
2022/12/25 11:13:35;;;;;;;16.25;7.80;;;;;;;-148.88;100.00;76258.66;5020027;28;20411;-85
2022/12/25 11:16:24;;;;;;;19.50;8.25;;;;;;;-148.88;100.00;76260.69;5042904;28;20030;-85
2022/12/25 11:18:53;;;;;;;15.95;8.05;;;;;;;-148.88;100.00;76256.63;5026656;28;20022;-86
2022/12/25 11:21:35;;;;;;;25.58;8.25;;;;;;;-148.88;100.00;76262.72;5014233;28;20061;-85
2022/12/25 11:24:15;;;;;;;19.10;8.23;;;;;;;-148.88;100.00;76258.66;5016307;28;20375;-86
2022/12/25 11:26:55;;;;;;;20.30;8.43;;;;;;;-148.88;100.00;76246.47;5075123;22;20044;-77
2022/12/25 11:29:32;;;;;;;18.67;7.95;;;;;;;-148.88;100.00;76240.38;5073057;28;20033;-77
2022/12/25 11:32:01;;;;;;;15.55;8.35;;;;;;;-148.88;100.00;76220.06;5073445;28;20032;-77
2022/12/25 11:34:31;;;;;;;15.25;8.38;;;;;;;-148.88;100.00;76224.13;5071793;28;20013;-76
2022/12/25 11:36:58;;;;;;;17.45;8.23;;;;;;;-148.88;100.00;76218.03;5071949;28;20511;-76
2022/12/25 11:39:35;;;;;;;22.20;8.93;;;;;;;-148.88;100.00;76207.88;5073362;28;20029;-75
2022/12/25 11:42:06;;;;;;;14.02;8.25;;;;;;;-148.88;100.00;76203.81;5072861;28;20514;-75
2022/12/25 11:44:55;;;;;;;17.98;8.95;;;;;;;-148.88;100.00;76207.88;5071305;28;20024;-77
2022/12/25 11:47:28;;;;;;;20.50;8.25;;;;;;;-148.88;100.00;76207.88;5062262;28;20036;-77
2022/12/25 11:50:19;;;;;;;18.30;8.55;;;;;;;-148.88;100.00;76199.75;5071844;28;20135;-77
2022/12/25 11:52:46;;;;;;;15.45;8.07;;;;;;;-148.88;100.00;76189.59;5072812;28;20031;-75
2022/12/25 11:55:27;;;;;;;15.95;9.20;;;;;;;-148.88;100.00;76175.38;5072725;28;20485;-77
2022/12/25 11:57:58;;;;;;;17.27;8.45;;;;;;;-148.88;100.00;76175.38;5073192;28;20050;-76
2022/12/25 12:00:24;;;;;;;16.58;8.40;;;;;;;-148.88;100.00;76171.31;5073228;28;20028;-76
2022/12/25 12:02:57;;;;;;;18.38;8.48;;;;;;;-148.88;100.00;76159.13;5072936;28;20025;-76
2022/12/25 12:05:34;;;;;;;18.70;8.98;;;;;;;-148.88;100.00;76159.13;5071228;28;20488;-77
2022/12/25 12:08:02;;;;;;;20.10;8.82;;;;;;;-148.88;100.00;76146.94;5073022;28;20063;-76
2022/12/25 12:10:58;;;;;;;18.45;9.77;;;;;;;-148.88;100.00;76134.72;5071471;28;20027;-76
2022/12/25 12:13:47;;;;;;;18.10;9.05;;;;;;;-148.88;100.00;76126.59;5072823;28;20028;-77
2022/12/25 12:16:12;;;;;;;16.65;8.68;;;;;;;-148.88;100.00;76120.53;5072691;28;20027;-78
2022/12/25 12:18:37;;;;;;;16.52;8.80;;;;;;;-148.88;100.00;76118.47;5073450;28;20032;-77
2022/12/25 12:21:20;;;;;;;22.95;9.60;;;;;;;-148.88;100.00;76110.34;5072381;28;20021;-75
2022/12/25 12:23:54;;;;;;;18.42;9.98;;;;;;;-148.88;100.00;76110.34;5071142;28;20025;-76
2022/12/25 12:26:26;;;;;;;18.50;9.48;;;;;;;-148.88;100.00;76110.34;5072341;28;20500;-77
2022/12/25 12:36:04;;;;;;;18.23;8.50;;;;;;;-148.88;100.00;76083.94;5072512;28;20031;-76
2022/12/25 12:38:30;;;;;;;20.40;10.10;;;;;;;-148.88;100.00;76073.78;5054531;28;20545;-77
2022/12/25 12:41:01;;;;;;;21.48;9.70;;;;;;;-148.88;100.00;76077.84;5072643;28;20032;-76
2022/12/25 12:43:35;;;;;;;16.98;9.48;;;;;;;-148.88;100.00;76073.78;5071885;28;20100;-75
2022/12/25 12:46:05;;;;;;;17.63;9.40;;;;;;;-148.88;100.00;76067.69;5072144;28;20036;-76
2022/12/25 12:48:38;;;;;;;17.73;9.65;;;;;;;-148.88;100.00;76069.72;5072307;28;20067;-76
2022/12/25 12:51:06;;;;;;;20.27;9.32;;;;;;;-148.88;100.00;76071.75;5072194;28;20533;-76
2022/12/25 12:53:33;;;;;;;19.88;10.35;;;;;;;-148.88;100.00;76063.63;5072001;28;20104;-76
2022/12/25 12:56:17;;;;;;;22.67;9.00;;;;;;;-148.88;100.00;76057.53;5053975;28;20403;-76
2022/12/25 12:58:48;;;;;;;18.33;9.32;;;;;;;-148.88;100.00;76051.44;5075236;28;20502;-76
2022/12/25 13:01:30;;;;;;;16.02;8.70;;;;;;;-148.88;100.00;76047.38;5075790;28;20040;-76
2022/12/25 13:04:45;;;;;;;17.08;8.48;;;;;;;-148.88;100.00;76041.28;5057677;28;20499;-76
2022/12/25 13:07:24;;;;;;;17.25;8.90;;;;;;;-148.88;100.00;76035.19;5075467;28;20107;-76
2022/12/25 13:10:06;;;;;;;19.58;9.77;;;;;;;-148.88;100.00;76029.09;5076042;28;20022;-76
2022/12/25 13:12:31;;;;;;;18.48;8.75;;;;;;;-148.88;100.00;76014.88;5075725;28;20040;-76